Goodlettsville, Tennessee
Current Conditions -  °F | °C
As of 9:53 AM on Thursday 27 Nov 2014 (Local Time) from KBNA Reporting Station
Broken Clouds Broken Clouds  
Wind Chill: 31°   Ceiling: 2600
Heat Index: 38°   Visibility: 10mi
Dew Point: 28°   Wind: 10mph
Humidity: 68%   Direction: 330°NNW
Pressure: 30.39"   Gusts: NA
Location:  36.32°N, 86.71°W
Report Text: KBNA 271553Z 33009KT 10SM BKN026 BKN030 03/M02 A3039 RMK AO2 SLP293 T00331022
Loading
Personal Weather Stations






























Interactive Weather Map New forecast layout! Learn more

10-Day Weather Forecast

Advertisements
Track Severe Weather on mobile